Leon Hermes — A8OK8 — position and weather

sailwx.info

Track history (hours):
 
Tides and Currents Weather Stations Pressure Air Temp Water Temp Dewpoint Dewpoint Depression Visibility Wind Speed Wind Dir Waves Ship Positions

Leon Hermes

Last reported at 2017-Aug-17 22:43 UTC. Time now 2017-Aug-19 11:02 UTC.
Position N 34°10' E 032°57'.

Length 176 m; draft 10.1 m.

Type: Ship. MMSI: 636013645.

Date/timePositionNaut miles runAvg speedWind from/ knotsBaromVisibWave heightAir tempDewpointWater temp
2017-Aug-17 22:43N 34°10' E 032°57'313.2
2017-Aug-17 22:29N 34°09' E 033°00'713.2
2017-Aug-17 21:57N 34°07' E 033°08'115 2.5
2017-Aug-15 23:57N 33°32' E 035°20'0 0.0
2017-Aug-15 14:03N 33°32' E 035°20'0 0.1
2017-Aug-15 14:00N 33°32' E 035°20'29 1.9
2017-Aug-14 23:01N 33°37' E 034°46'813.3
2017-Aug-14 22:26N 33°40' E 034°37'1613.5
2017-Aug-14 21:13N 33°45' E 034°19'313.6
2017-Aug-14 21:00N 33°46' E 034°16'1013.5
2017-Aug-14 20:17N 33°50' E 034°04'413.5
2017-Aug-14 19:57N 33°51' E 033°59'1413.6
2017-Aug-14 18:55N 33°56' E 033°44'613.6
2017-Aug-14 18:30N 33°58' E 033°37'1313.7
2017-Aug-14 17:32N 34°02' E 033°22'013.8
2017-Aug-14 17:31N 34°02' E 033°22'714.2
2017-Aug-14 17:00N 34°05' E 033°14'714.2
2017-Aug-14 16:31N 34°07' E 033°06'714.2
2017-Aug-14 16:01N 34°10' E 032°57'714.2
2017-Aug-14 15:30N 34°12' E 032°49'714.2
2017-Aug-14 15:01N 34°15' E 032°41'714.1
2017-Aug-14 14:30N 34°17' E 032°33'714.0
2017-Aug-14 14:01N 34°20' E 032°26'1713.8
2017-Aug-14 12:46N 34°25' E 032°06'413.8
2017-Aug-14 12:31N 34°26' E 032°02'2913.6
2017-Aug-14 10:22N 34°37' E 031°29'613.6
2017-Aug-14 09:53N 34°39' E 031°21'513.6
2017-Aug-14 09:31N 34°41' E 031°15'713.4
2017-Aug-14 09:00N 34°43' E 031°08'1313.4
2017-Aug-14 08:02N 34°47' E 030°53'113.5
2017-Aug-14 08:00N 34°47' E 030°52'613.4
2017-Aug-14 07:31N 34°50' E 030°45'713.0
2017-Aug-14 07:01N 34°52' E 030°37'510.5
2017-Aug-14 06:30N 34°54' E 030°31'26912.5
2017-Aug-13 09:03N 37°24' E 025°55'013.2
2017-Aug-13 09:00N 37°24' E 025°55'713.1
2017-Aug-13 08:30N 37°30' E 025°51'713.5
2017-Aug-13 07:58N 37°37' E 025°49'14013.3
2017-Aug-12 21:24N 39°57' E 025°54'145 7.3
2017-Aug-12 01:28N 40°54' E 028°48'7 8.3
2017-Aug-12 00:34N 40°58' E 028°57'11 7.8
2017-Aug-11 23:12N 41°07' E 029°04'211.4
2017-Aug-11 23:00N 41°09' E 029°04'610.1
2017-Aug-11 22:27N 41°14' E 029°08'3 7.7
2017-Aug-11 22:00N 41°17' E 029°08'4 7.7
2017-Aug-11 21:30N 41°21' E 029°07'5 9.9
2017-Aug-11 21:00N 41°26' E 029°07'2 4.2
2017-Aug-11 20:30N 41°28' E 029°07'0 0.7
2017-Aug-11 20:00N 41°29' E 029°07'0 0.7
2017-Aug-11 19:30N 41°29' E 029°08'0 0.8
2017-Aug-11 18:57N 41°29' E 029°08'0 0.9
2017-Aug-11 18:30N 41°30' E 029°08'0 1.0
2017-Aug-11 18:00N 41°30' E 029°08'0 0.9
2017-Aug-11 17:30N 41°31' E 029°08'1 1.0
2017-Aug-11 16:57N 41°31' E 029°08'1 1.0
2017-Aug-11 16:15N 41°32' E 029°07'0 1.0
2017-Aug-11 15:57N 41°32' E 029°07'0 1.0
2017-Aug-11 15:30N 41°32' E 029°07'0 1.0
2017-Aug-11 15:00N 41°33' E 029°07'0 1.0
2017-Aug-11 14:30N 41°33' E 029°06'1 0.8
2017-Aug-11 13:30N 41°34' E 029°05'0 0.8
2017-Aug-11 13:00N 41°34' E 029°05'0 0.7
2017-Aug-11 12:29N 41°34' E 029°04'1 0.6
2017-Aug-11 11:22N 41°34' E 029°04'0 0.9
2017-Aug-11 10:58N 41°35' E 029°03'0 0.6
2017-Aug-11 10:24N 41°35' E 029°03'27 6.5
2017-Aug-11 06:16N 41°17' E 029°31'0 0.6
2017-Aug-11 05:40N 41°17' E 029°30'0 0.6
2017-Aug-11 05:02N 41°18' E 029°30'0 0.6
2017-Aug-11 05:00N 41°18' E 029°30'1 0.6
2017-Aug-11 03:24N 41°18' E 029°29'0 0.7
2017-Aug-11 02:56N 41°18' E 029°28'4 0.7
2017-Aug-10 21:28N 41°21' E 029°25'  
2017-Aug-08 17:26N 43°40' E 035°23'512.9
2017-Aug-08 17:00N 43°43' E 035°30'712.9
2017-Aug-08 16:30N 43°46' E 035°37'1912.9
2017-Aug-08 15:00N 43°55' E 036°01'713.1
2017-Aug-08 14:28N 43°59' E 036°10'6513.3
2017-Aug-08 09:35N 44°28' E 037°31'313.3
2017-Aug-08 09:22N 44°29' E 037°34'513.2
2017-Aug-08 09:00N 44°32' E 037°40'713.3
2017-Aug-08 08:30N 44°36' E 037°47'5 9.1
2017-Aug-08 08:00N 44°40' E 037°50'4 8.0
2017-Aug-08 07:30N 44°44' E 037°48'0 0.8
2017-Aug-08 07:00N 44°44' E 037°47'0 0.0
2017-Aug-08 06:30N 44°44' E 037°47'0 0.0
2017-Aug-08 06:00N 44°44' E 037°47'0 0.0
2017-Aug-08 05:30N 44°44' E 037°47'0 0.0
2017-Aug-08 05:00N 44°44' E 037°47'0 0.0
2017-Aug-08 04:30N 44°44' E 037°47'0 0.0
2017-Aug-08 04:00N 44°44' E 037°47'0 0.0
2017-Aug-08 03:30N 44°44' E 037°47'0 0.0
2017-Aug-08 03:00N 44°44' E 037°47'0 0.0
2017-Aug-08 02:30N 44°44' E 037°47'0 0.0
2017-Aug-08 02:00N 44°44' E 037°47'0 0.0
2017-Aug-08 01:30N 44°44' E 037°47'0 0.0
2017-Aug-08 01:00N 44°44' E 037°47'0 0.0
2017-Aug-08 00:30N 44°44' E 037°47'0 0.0
2017-Aug-08 00:00N 44°44' E 037°47'0 0.0
2017-Aug-07 23:30N 44°44' E 037°47'0 0.0
2017-Aug-07 23:00N 44°44' E 037°47'  
Track history (hours):
 
Tides and Currents Weather Stations Pressure Air Temp Water Temp Dewpoint Dewpoint Depression Visibility Wind Speed Wind Dir Waves Ship Positions

Leon Hermes

Last reported at 2017-Aug-17 22:43 UTC. Time now 2017-Aug-19 11:02 UTC.
Position N 34°10' E 032°57'.

Length 176 m; draft 10.1 m.

Type: Ship. MMSI: 636013645.

Date/timePositionNaut miles runAvg speedWind from/ knotsBaromVisibWave heightAir tempDewpointWater temp
2017-Aug-17 22:43N 34°10' E 032°57'313.2
2017-Aug-17 22:29N 34°09' E 033°00'713.2
2017-Aug-17 21:57N 34°07' E 033°08'115 2.5
2017-Aug-15 23:57N 33°32' E 035°20'0 0.0
2017-Aug-15 14:03N 33°32' E 035°20'0 0.1
2017-Aug-15 14:00N 33°32' E 035°20'29 1.9
2017-Aug-14 23:01N 33°37' E 034°46'813.3
2017-Aug-14 22:26N 33°40' E 034°37'1613.5
2017-Aug-14 21:13N 33°45' E 034°19'313.6
2017-Aug-14 21:00N 33°46' E 034°16'1013.5
2017-Aug-14 20:17N 33°50' E 034°04'413.5
2017-Aug-14 19:57N 33°51' E 033°59'1413.6
2017-Aug-14 18:55N 33°56' E 033°44'613.6
2017-Aug-14 18:30N 33°58' E 033°37'1313.7
2017-Aug-14 17:32N 34°02' E 033°22'013.8
2017-Aug-14 17:31N 34°02' E 033°22'714.2
2017-Aug-14 17:00N 34°05' E 033°14'714.2
2017-Aug-14 16:31N 34°07' E 033°06'714.2
2017-Aug-14 16:01N 34°10' E 032°57'714.2
2017-Aug-14 15:30N 34°12' E 032°49'714.2
2017-Aug-14 15:01N 34°15' E 032°41'714.1
2017-Aug-14 14:30N 34°17' E 032°33'714.0
2017-Aug-14 14:01N 34°20' E 032°26'1713.8
2017-Aug-14 12:46N 34°25' E 032°06'413.8
2017-Aug-14 12:31N 34°26' E 032°02'2913.6
2017-Aug-14 10:22N 34°37' E 031°29'613.6
2017-Aug-14 09:53N 34°39' E 031°21'513.6
2017-Aug-14 09:31N 34°41' E 031°15'713.4
2017-Aug-14 09:00N 34°43' E 031°08'1313.4
2017-Aug-14 08:02N 34°47' E 030°53'113.5
2017-Aug-14 08:00N 34°47' E 030°52'613.4
2017-Aug-14 07:31N 34°50' E 030°45'713.0
2017-Aug-14 07:01N 34°52' E 030°37'510.5
2017-Aug-14 06:30N 34°54' E 030°31'26912.5
2017-Aug-13 09:03N 37°24' E 025°55'013.2
2017-Aug-13 09:00N 37°24' E 025°55'713.1
2017-Aug-13 08:30N 37°30' E 025°51'713.5
2017-Aug-13 07:58N 37°37' E 025°49'14013.3
2017-Aug-12 21:24N 39°57' E 025°54'145 7.3
2017-Aug-12 01:28N 40°54' E 028°48'7 8.3
2017-Aug-12 00:34N 40°58' E 028°57'11 7.8
2017-Aug-11 23:12N 41°07' E 029°04'211.4
2017-Aug-11 23:00N 41°09' E 029°04'610.1
2017-Aug-11 22:27N 41°14' E 029°08'3 7.7
2017-Aug-11 22:00N 41°17' E 029°08'4 7.7
2017-Aug-11 21:30N 41°21' E 029°07'5 9.9
2017-Aug-11 21:00N 41°26' E 029°07'2 4.2
2017-Aug-11 20:30N 41°28' E 029°07'0 0.7
2017-Aug-11 20:00N 41°29' E 029°07'0 0.7
2017-Aug-11 19:30N 41°29' E 029°08'0 0.8
2017-Aug-11 18:57N 41°29' E 029°08'0 0.9
2017-Aug-11 18:30N 41°30' E 029°08'0 1.0
2017-Aug-11 18:00N 41°30' E 029°08'0 0.9
2017-Aug-11 17:30N 41°31' E 029°08'1 1.0
2017-Aug-11 16:57N 41°31' E 029°08'1 1.0
2017-Aug-11 16:15N 41°32' E 029°07'0 1.0
2017-Aug-11 15:57N 41°32' E 029°07'0 1.0
2017-Aug-11 15:30N 41°32' E 029°07'0 1.0
2017-Aug-11 15:00N 41°33' E 029°07'0 1.0
2017-Aug-11 14:30N 41°33' E 029°06'1 0.8
2017-Aug-11 13:30N 41°34' E 029°05'0 0.8
2017-Aug-11 13:00N 41°34' E 029°05'0 0.7
2017-Aug-11 12:29N 41°34' E 029°04'1 0.6
2017-Aug-11 11:22N 41°34' E 029°04'0 0.9
2017-Aug-11 10:58N 41°35' E 029°03'0 0.6
2017-Aug-11 10:24N 41°35' E 029°03'27 6.5
2017-Aug-11 06:16N 41°17' E 029°31'0 0.6
2017-Aug-11 05:40N 41°17' E 029°30'0 0.6
2017-Aug-11 05:02N 41°18' E 029°30'0 0.6
2017-Aug-11 05:00N 41°18' E 029°30'1 0.6
2017-Aug-11 03:24N 41°18' E 029°29'0 0.7
2017-Aug-11 02:56N 41°18' E 029°28'4 0.7
2017-Aug-10 21:28N 41°21' E 029°25'  
2017-Aug-08 17:26N 43°40' E 035°23'512.9
2017-Aug-08 17:00N 43°43' E 035°30'712.9
2017-Aug-08 16:30N 43°46' E 035°37'1912.9
2017-Aug-08 15:00N 43°55' E 036°01'713.1
2017-Aug-08 14:28N 43°59' E 036°10'6513.3
2017-Aug-08 09:35N 44°28' E 037°31'313.3
2017-Aug-08 09:22N 44°29' E 037°34'513.2
2017-Aug-08 09:00N 44°32' E 037°40'713.3
2017-Aug-08 08:30N 44°36' E 037°47'5 9.1
2017-Aug-08 08:00N 44°40' E 037°50'4 8.0
2017-Aug-08 07:30N 44°44' E 037°48'0 0.8
2017-Aug-08 07:00N 44°44' E 037°47'0 0.0
2017-Aug-08 06:30N 44°44' E 037°47'0 0.0
2017-Aug-08 06:00N 44°44' E 037°47'0 0.0
2017-Aug-08 05:30N 44°44' E 037°47'0 0.0
2017-Aug-08 05:00N 44°44' E 037°47'0 0.0
2017-Aug-08 04:30N 44°44' E 037°47'0 0.0
2017-Aug-08 04:00N 44°44' E 037°47'0 0.0
2017-Aug-08 03:30N 44°44' E 037°47'0 0.0
2017-Aug-08 03:00N 44°44' E 037°47'0 0.0
2017-Aug-08 02:30N 44°44' E 037°47'0 0.0
2017-Aug-08 02:00N 44°44' E 037°47'0 0.0
2017-Aug-08 01:30N 44°44' E 037°47'0 0.0
2017-Aug-08 01:00N 44°44' E 037°47'0 0.0
2017-Aug-08 00:30N 44°44' E 037°47'0 0.0
2017-Aug-08 00:00N 44°44' E 037°47'0 0.0
2017-Aug-07 23:30N 44°44' E 037°47'0 0.0
2017-Aug-07 23:00N 44°44' E 037°47'  

Dump ship's entire track history